createdAt,value
2018-08-31T00:00:50.936Z,100171.98
2018-08-31T00:04:44.146Z,100171.09
2018-08-31T00:10:15.951Z,100169.44
2018-08-31T00:13:20.861Z,100164.97
2018-08-31T00:16:25.695Z,100172.06
2018-08-31T00:19:30.561Z,100162.86
2018-08-31T00:22:35.416Z,100159.86
2018-08-31T00:26:09.928Z,100157.34
2018-08-31T00:29:50.907Z,100161.06
2018-08-31T00:37:22.466Z,100161.20
2018-08-31T00:44:59.360Z,100159.38
2018-08-31T00:48:04.719Z,100160.55
2018-08-31T00:51:09.644Z,100164.28
2018-08-31T00:54:14.625Z,100167.59
2018-08-31T00:57:19.475Z,100157.16
2018-08-31T01:00:24.625Z,100146.56
2018-08-31T01:03:29.470Z,100147.31
2018-08-31T01:06:34.300Z,100148.06
2018-08-31T01:09:39.748Z,100153.86
2018-08-31T01:12:45.053Z,100145.59
2018-08-31T01:15:49.928Z,100152.98
2018-08-31T01:18:54.864Z,100161.11
2018-08-31T01:22:00.403Z,100172.27
2018-08-31T01:25:05.451Z,100173.02
2018-08-31T01:28:10.314Z,100170.60
2018-08-31T01:31:15.218Z,100159.50
2018-08-31T01:34:20.035Z,100157.93
2018-08-31T01:37:24.874Z,100163.50
2018-08-31T01:40:29.841Z,100159.32
2018-08-31T01:43:34.754Z,100156.15
2018-08-31T01:46:39.705Z,100162.64
2018-08-31T01:49:44.554Z,100160.78
2018-08-31T01:52:49.468Z,100155.60
2018-08-31T01:55:54.301Z,100148.53
2018-08-31T01:58:59.159Z,100155.48
2018-08-31T02:02:04.289Z,100142.66
2018-08-31T02:05:09.124Z,100148.25
2018-08-31T02:08:14.063Z,100151.47
2018-08-31T02:11:18.883Z,100149.73
2018-08-31T02:14:23.756Z,100147.69
2018-08-31T02:17:28.655Z,100137.14
2018-08-31T02:20:33.574Z,100135.13
2018-08-31T02:23:39.136Z,100141.15
2018-08-31T02:26:43.949Z,100144.77
2018-08-31T02:29:48.861Z,100145.19
2018-08-31T02:32:53.812Z,100140.06
2018-08-31T02:35:58.836Z,100138.87
2018-08-31T02:39:03.876Z,100134.36
2018-08-31T02:42:08.855Z,100141.66
2018-08-31T02:45:13.712Z,100139.61
2018-08-31T02:48:18.545Z,100129.98
2018-08-31T02:51:23.442Z,100130.88
2018-08-31T02:54:28.222Z,100129.69
2018-08-31T02:57:33.226Z,100128.01
2018-08-31T03:00:38.042Z,100125.91
2018-08-31T03:03:42.948Z,100126.58
2018-08-31T03:06:47.779Z,100130.84
2018-08-31T03:09:52.553Z,100136.16
2018-08-31T03:12:57.550Z,100131.56
2018-08-31T03:16:02.414Z,100117.87
2018-08-31T03:19:07.546Z,100127.05
2018-08-31T03:22:12.429Z,100119.30
2018-08-31T03:25:17.368Z,100115.44
2018-08-31T03:28:22.524Z,100111.73
2018-08-31T03:31:27.529Z,100120.02
2018-08-31T03:34:32.444Z,100120.50
2018-08-31T03:37:37.424Z,100127.11
2018-08-31T03:40:42.250Z,100130.88
2018-08-31T03:43:47.132Z,100126.89
2018-08-31T03:46:52.143Z,100122.75
2018-08-31T03:49:57.009Z,100120.42
2018-08-31T03:53:02.144Z,100122.47
2018-08-31T03:56:07.431Z,100118.86
2018-08-31T03:59:12.366Z,100115.45
2018-08-31T04:02:17.246Z,100124.48
2018-08-31T04:05:22.084Z,100126.69
2018-08-31T04:08:26.936Z,100124.27
2018-08-31T04:11:31.866Z,100135.45
2018-08-31T04:14:36.922Z,100139.23
2018-08-31T04:17:41.823Z,100128.86
2018-08-31T04:20:46.735Z,100126.75
2018-08-31T04:23:51.617Z,100133.34
2018-08-31T04:26:56.576Z,100139.14
2018-08-31T04:30:01.718Z,100143.82
2018-08-31T04:33:06.691Z,100140.58
2018-08-31T04:36:11.537Z,100143.53
2018-08-31T04:39:16.508Z,100137.50
2018-08-31T04:42:21.450Z,100141.50
2018-08-31T04:45:26.270Z,100145.44
2018-08-31T04:48:31.175Z,100150.02
2018-08-31T04:51:36.050Z,100153.34
2018-08-31T04:54:40.964Z,100157.48
2018-08-31T04:57:45.851Z,100153.67
2018-08-31T05:00:50.650Z,100153.81
2018-08-31T05:03:56.044Z,100147.75
2018-08-31T05:07:00.917Z,100147.39
2018-08-31T05:10:05.909Z,100149.37
2018-08-31T05:13:10.780Z,100157.03
2018-08-31T05:16:15.693Z,100158.95
2018-08-31T05:19:20.547Z,100151.64
2018-08-31T05:22:25.510Z,100154.47
2018-08-31T05:25:30.399Z,100147.26
2018-08-31T05:28:35.291Z,100138.33
2018-08-31T05:31:40.275Z,100140.59
2018-08-31T05:34:45.324Z,100144.57
2018-08-31T05:37:50.138Z,100146.83
2018-08-31T05:40:55.043Z,100143.91
2018-08-31T05:44:00.212Z,100152.44
2018-08-31T05:47:05.032Z,100153.97
2018-08-31T05:50:10.201Z,100158.49
2018-08-31T05:53:15.180Z,100158.93
2018-08-31T05:56:20.001Z,100160.44
2018-08-31T05:59:24.938Z,100166.53
2018-08-31T06:02:29.772Z,100160.79
2018-08-31T06:05:34.604Z,100158.30
2018-08-31T06:08:39.467Z,100171.31
2018-08-31T06:11:44.404Z,100174.55
2018-08-31T06:14:49.286Z,100168.65
2018-08-31T06:17:54.231Z,100164.19
2018-08-31T06:20:59.251Z,100160.89
2018-08-31T06:24:04.200Z,100166.08
2018-08-31T06:27:09.227Z,100156.66
2018-08-31T06:30:14.041Z,100157.64
2018-08-31T06:33:19.045Z,100157.20
2018-08-31T06:36:23.960Z,100159.95
2018-08-31T06:39:28.977Z,100153.35
2018-08-31T06:42:33.848Z,100160.91
2018-08-31T06:45:38.708Z,100170.11
2018-08-31T06:48:43.685Z,100173.14
2018-08-31T06:51:48.680Z,100171.16
2018-08-31T06:54:53.613Z,100174.92
2018-08-31T06:57:58.470Z,100180.77
2018-08-31T07:01:03.448Z,100180.63
2018-08-31T07:04:08.322Z,100186.19
2018-08-31T07:07:13.287Z,100185.67
2018-08-31T07:10:18.357Z,100181.73
2018-08-31T07:13:23.321Z,100184.98
2018-08-31T07:16:28.152Z,100178.52
2018-08-31T07:19:33.009Z,100183.08
2018-08-31T07:22:37.994Z,100178.52
2018-08-31T07:25:43.018Z,100177.20
2018-08-31T07:28:47.897Z,100181.78
2018-08-31T07:31:52.754Z,100183.19
2018-08-31T07:34:57.630Z,100175.34
2018-08-31T07:38:02.594Z,100184.16
2018-08-31T07:41:07.758Z,100179.69
2018-08-31T07:44:12.702Z,100179.11
2018-08-31T07:47:17.569Z,100189.85
2018-08-31T07:50:22.531Z,100183.27
2018-08-31T07:53:30.204Z,100190.09
2018-08-31T07:56:35.074Z,100189.55
2018-08-31T07:59:40.007Z,100187.89
2018-08-31T08:02:44.938Z,100196.26
2018-08-31T08:05:49.796Z,100195.89
2018-08-31T08:08:54.899Z,100198.71
2018-08-31T08:11:59.783Z,100200.34
2018-08-31T08:15:04.806Z,100195.66
2018-08-31T08:18:09.961Z,100191.26
2018-08-31T08:21:14.857Z,100184.80
2018-08-31T08:24:19.844Z,100185.81
2018-08-31T08:27:24.828Z,100178.82
2018-08-31T08:30:29.805Z,100177.63
2018-08-31T08:33:34.708Z,100183.05
2018-08-31T08:36:39.715Z,100191.78
2018-08-31T08:39:44.589Z,100202.55
2018-08-31T08:42:49.407Z,100194.53
2018-08-31T08:45:54.263Z,100194.23
2018-08-31T08:48:59.202Z,100190.69
2018-08-31T08:52:04.093Z,100188.78
2018-08-31T08:55:08.919Z,100194.78
2018-08-31T08:58:13.832Z,100190.35
2018-08-31T09:01:18.686Z,100195.63
2018-08-31T09:04:23.910Z,100196.64
2018-08-31T09:07:28.842Z,100188.64
2018-08-31T09:10:33.747Z,100191.15
2018-08-31T09:13:38.585Z,100190.05
2018-08-31T09:16:43.527Z,100187.30
2018-08-31T09:19:48.500Z,100191.90
2018-08-31T09:22:54.705Z,100184.70
2018-08-31T09:26:02.545Z,100185.81
2018-08-31T09:29:07.469Z,100186.78
2018-08-31T09:32:17.575Z,100197.45
2018-08-31T09:35:22.553Z,100198.45
2018-08-31T09:38:27.561Z,100189.75
2018-08-31T09:41:32.428Z,100192.63
2018-08-31T09:44:37.381Z,100194.91
2018-08-31T09:47:42.435Z,100186.48
2018-08-31T09:50:47.375Z,100189.35
2018-08-31T09:53:52.337Z,100186.07
2018-08-31T09:56:57.236Z,100179.41
2018-08-31T10:00:02.236Z,100181.51
2018-08-31T10:03:11.943Z,100181.77
2018-08-31T10:06:16.867Z,100186.19
2018-08-31T10:09:21.725Z,100187.78
2018-08-31T10:12:26.603Z,100184.91
2018-08-31T10:15:31.501Z,100185.62
2018-08-31T10:18:36.433Z,100181.20
2018-08-31T10:21:41.467Z,100175.20
2018-08-31T10:24:46.391Z,100169.33
2018-08-31T10:27:51.320Z,100168.70
2018-08-31T10:30:56.299Z,100169.02
2018-08-31T10:37:21.272Z,100176.73
2018-08-31T10:40:26.623Z,100173.73
2018-08-31T10:43:31.613Z,100167.44
2018-08-31T10:46:36.783Z,100164.94
2018-08-31T10:49:41.511Z,100162.75
2018-08-31T10:52:46.476Z,100164.38
2018-08-31T10:55:51.279Z,100160.97
2018-08-31T10:58:56.326Z,100162.47
2018-08-31T11:02:01.478Z,100158.91
2018-08-31T11:05:06.679Z,100149.66
2018-08-31T11:08:11.790Z,100156.73
2018-08-31T11:11:16.664Z,100147.91
2018-08-31T11:14:21.562Z,100152.61
2018-08-31T11:17:26.438Z,100145.96
2018-08-31T11:20:31.315Z,100152.66
2018-08-31T11:23:36.327Z,100152.37
2018-08-31T11:26:41.243Z,100137.44
2018-08-31T11:29:46.178Z,100132.38
2018-08-31T11:32:51.246Z,100123.23
2018-08-31T11:35:56.141Z,100117.63
2018-08-31T11:39:01.175Z,100112.58
2018-08-31T11:42:06.245Z,100115.23
2018-08-31T11:45:11.212Z,100124.70
2018-08-31T11:48:16.268Z,100119.98
2018-08-31T11:51:21.426Z,100111.92
2018-08-31T11:54:26.358Z,100126.52
2018-08-31T11:57:31.214Z,100129.56
2018-08-31T12:00:36.145Z,100121.05
2018-08-31T12:03:41.062Z,100116.73
2018-08-31T12:06:45.906Z,100119.78
2018-08-31T12:09:50.861Z,100119.47
2018-08-31T12:12:55.814Z,100115.33
2018-08-31T12:16:00.720Z,100111.59
2018-08-31T12:19:05.779Z,100110.01
2018-08-31T12:22:10.713Z,100115.64
2018-08-31T12:25:15.626Z,100118.58
2018-08-31T12:28:20.570Z,100114.02
2018-08-31T12:31:25.549Z,100106.69
2018-08-31T12:34:30.440Z,100115.52
2018-08-31T12:37:35.418Z,100105.70
2018-08-31T12:40:40.603Z,100108.27
2018-08-31T12:43:45.661Z,100110.64
2018-08-31T12:46:50.480Z,100114.45
2018-08-31T12:49:55.346Z,100109.52
2018-08-31T12:53:00.359Z,100110.22
2018-08-31T12:56:05.259Z,100105.53
2018-08-31T12:59:10.191Z,100110.18
2018-08-31T13:02:15.138Z,100103.64
2018-08-31T13:05:20.016Z,100103.64
2018-08-31T13:08:25.209Z,100099.02
2018-08-31T13:11:30.042Z,100094.13
2018-08-31T13:14:34.926Z,100092.73
2018-08-31T13:17:39.951Z,100093.88
2018-08-31T13:20:44.885Z,100095.27
2018-08-31T13:23:49.759Z,100101.73
2018-08-31T13:26:54.973Z,100096.92
2018-08-31T13:29:59.909Z,100093.63
2018-08-31T13:33:04.882Z,100095.59
2018-08-31T13:36:09.764Z,100090.05
2018-08-31T13:39:14.728Z,100098.55
2018-08-31T13:42:19.679Z,100094.59
2018-08-31T13:45:24.591Z,100099.45
2018-08-31T13:48:29.515Z,100095.56
2018-08-31T13:51:34.430Z,100083.44
2018-08-31T13:54:39.328Z,100094.88
2018-08-31T13:57:44.411Z,100088.16
2018-08-31T14:00:49.294Z,100092.67
2018-08-31T14:03:54.198Z,100090.36
2018-08-31T14:06:59.104Z,100087.38
2018-08-31T14:10:03.999Z,100085.20
2018-08-31T14:13:08.976Z,100084.42
2018-08-31T14:16:13.980Z,100090.78
2018-08-31T14:19:18.859Z,100089.81
2018-08-31T14:22:23.892Z,100084.53
2018-08-31T14:25:28.823Z,100082.28
2018-08-31T14:28:33.909Z,100089.37
2018-08-31T14:31:38.823Z,100083.53
2018-08-31T14:34:43.839Z,100086.94
2018-08-31T14:37:48.763Z,100076.95
2018-08-31T14:40:54.107Z,100075.89
2018-08-31T14:43:59.108Z,100075.63
2018-08-31T14:47:03.995Z,100081.52
2018-08-31T14:50:08.951Z,100078.16
2018-08-31T14:53:13.840Z,100080.50
2018-08-31T14:56:18.790Z,100075.98
2018-08-31T14:59:23.920Z,100074.52
2018-08-31T15:02:28.946Z,100077.21
2018-08-31T15:05:33.868Z,100073.63
2018-08-31T15:08:38.764Z,100079.61
2018-08-31T15:11:43.669Z,100064.45
2018-08-31T15:14:48.714Z,100064.70
2018-08-31T15:17:53.740Z,100060.53
2018-08-31T15:20:58.673Z,100062.83
2018-08-31T15:24:03.668Z,100060.61
2018-08-31T15:27:08.569Z,100061.66
2018-08-31T15:30:13.560Z,100056.12
2018-08-31T15:33:18.387Z,100051.66
2018-08-31T15:36:23.239Z,100052.58
2018-08-31T15:39:28.189Z,100054.04
2018-08-31T15:42:33.176Z,100053.31
2018-08-31T15:45:38.049Z,100061.09
2018-08-31T15:48:43.160Z,100056.63
2018-08-31T15:51:48.166Z,100060.72
2018-08-31T15:54:53.112Z,100055.47
2018-08-31T15:57:57.998Z,100052.44
2018-08-31T16:01:02.832Z,100053.12
2018-08-31T16:04:07.812Z,100057.75
2018-08-31T16:07:12.790Z,100057.08
2018-08-31T16:10:17.760Z,100057.63
2018-08-31T16:13:22.773Z,100067.02
2018-08-31T16:16:28.419Z,100067.91
2018-08-31T16:22:37.199Z,100062.81
2018-08-31T16:25:42.222Z,100065.89
2018-08-31T16:28:47.291Z,100063.23
2018-08-31T16:31:52.371Z,100063.50
2018-08-31T16:34:57.302Z,100068.73
2018-08-31T16:38:02.207Z,100062.98
2018-08-31T16:41:07.178Z,100060.48
2018-08-31T16:44:12.223Z,100064.09
2018-08-31T16:47:17.236Z,100067.94
2018-08-31T16:50:22.210Z,100070.12
2018-08-31T16:53:27.213Z,100072.62
2018-08-31T16:56:32.131Z,100077.29
2018-08-31T16:59:37.035Z,100076.47
2018-08-31T17:02:41.954Z,100075.09
2018-08-31T17:05:46.885Z,100078.34
2018-08-31T17:08:51.798Z,100074.78
2018-08-31T17:11:56.637Z,100081.38
2018-08-31T17:15:01.508Z,100089.61
2018-08-31T17:18:06.407Z,100091.52
2018-08-31T17:21:11.336Z,100096.70
2018-08-31T17:24:16.428Z,100104.08
2018-08-31T17:27:26.633Z,100108.08
2018-08-31T17:30:31.824Z,100106.97
2018-08-31T17:33:41.963Z,100108.78
2018-08-31T17:36:51.994Z,100114.48
2018-08-31T17:39:57.792Z,100116.89
2018-08-31T17:43:03.268Z,100117.73
2018-08-31T17:46:08.267Z,100122.30
2018-08-31T17:49:13.213Z,100126.62
2018-08-31T17:52:18.222Z,100131.20
2018-08-31T17:55:23.308Z,100140.45
2018-08-31T17:58:28.317Z,100136.03
2018-08-31T18:01:33.322Z,100142.56
2018-08-31T18:04:38.358Z,100139.70
2018-08-31T18:07:43.444Z,100145.95
2018-08-31T18:10:48.449Z,100150.63
2018-08-31T18:13:53.419Z,100150.20
2018-08-31T18:16:59.377Z,100158.09
2018-08-31T18:20:04.390Z,100161.64
2018-08-31T18:23:09.293Z,100160.77
2018-08-31T18:26:14.277Z,100166.47
2018-08-31T18:29:19.150Z,100171.36
2018-08-31T18:32:24.035Z,100168.95
2018-08-31T18:35:29.018Z,100169.09
2018-08-31T18:38:34.115Z,100175.02
2018-08-31T18:41:39.446Z,100169.44
2018-08-31T18:44:44.480Z,100174.34
2018-08-31T18:47:49.510Z,100171.38
2018-08-31T18:50:55.115Z,100180.35
2018-08-31T18:54:00.221Z,100176.02
2018-08-31T18:57:05.157Z,100183.27
2018-08-31T19:00:10.292Z,100191.69
2018-08-31T19:03:15.384Z,100200.05
2018-08-31T19:06:20.414Z,100197.56
2018-08-31T19:09:25.517Z,100205.38
2018-08-31T19:12:30.445Z,100211.84
2018-08-31T19:15:35.672Z,100222.69
2018-08-31T19:18:41.260Z,100234.45
2018-08-31T19:21:46.206Z,100247.30
2018-08-31T19:24:51.274Z,100244.73
2018-08-31T19:27:56.392Z,100251.17
2018-08-31T19:31:01.427Z,100244.43
2018-08-31T19:34:06.514Z,100251.40
2018-08-31T19:37:11.498Z,100248.09
2018-08-31T19:40:16.496Z,100253.00
2018-08-31T19:43:21.744Z,100254.05
2018-08-31T19:46:26.735Z,100263.00
2018-08-31T19:49:31.699Z,100257.00
2018-08-31T19:52:36.626Z,100260.73
2018-08-31T19:55:41.620Z,100255.70
2018-08-31T19:58:46.630Z,100256.17
2018-08-31T20:01:51.454Z,100252.90
2018-08-31T20:04:56.578Z,100257.50
2018-08-31T20:08:01.540Z,100257.95
2018-08-31T20:11:06.718Z,100256.91
2018-08-31T20:14:11.654Z,100262.17
2018-08-31T20:17:16.650Z,100259.19
2018-08-31T20:20:21.657Z,100263.87
2018-08-31T20:23:26.653Z,100272.22
2018-08-31T20:26:31.672Z,100275.11
2018-08-31T20:29:36.637Z,100282.22
2018-08-31T20:32:41.607Z,100290.53
2018-08-31T20:35:46.602Z,100286.52
2018-08-31T20:38:51.687Z,100287.45
2018-08-31T20:41:56.606Z,100282.20
2018-08-31T20:45:01.559Z,100292.94
2018-08-31T20:48:06.778Z,100293.41
2018-08-31T20:51:11.756Z,100288.98
2018-08-31T20:54:17.184Z,100295.17
2018-08-31T20:57:21.979Z,100304.48
2018-08-31T21:00:26.954Z,100303.13
2018-08-31T21:03:31.958Z,100312.69
2018-08-31T21:06:36.849Z,100312.22
2018-08-31T21:09:41.803Z,100322.61
2018-08-31T21:12:46.700Z,100325.73
2018-08-31T21:15:51.796Z,100328.23
2018-08-31T21:18:56.760Z,100326.92
2018-08-31T21:22:01.679Z,100328.39
2018-08-31T21:25:06.631Z,100328.89
2018-08-31T21:28:11.721Z,100326.81
2018-08-31T21:31:16.906Z,100333.14
2018-08-31T21:34:21.874Z,100328.09
2018-08-31T21:37:26.782Z,100328.63
2018-08-31T21:40:31.704Z,100333.55
2018-08-31T21:43:36.938Z,100333.77
2018-08-31T21:46:41.952Z,100332.47
2018-08-31T21:49:46.874Z,100333.30
2018-08-31T21:52:51.698Z,100330.88
2018-08-31T21:55:56.665Z,100339.75
2018-08-31T21:59:01.536Z,100337.70
2018-08-31T22:02:06.708Z,100343.39
2018-08-31T22:05:11.661Z,100334.23
2018-08-31T22:08:18.066Z,100334.85
2018-08-31T22:11:22.988Z,100336.60
2018-08-31T22:14:27.928Z,100333.45
2018-08-31T22:17:32.845Z,100329.21
2018-08-31T22:20:37.721Z,100329.78
2018-08-31T22:23:42.685Z,100331.22
2018-08-31T22:26:47.662Z,100336.90
2018-08-31T22:29:52.576Z,100337.05
2018-08-31T22:32:57.567Z,100335.77
2018-08-31T22:36:02.536Z,100347.53
2018-08-31T22:39:09.982Z,100352.66
2018-08-31T22:42:14.837Z,100350.39
2018-08-31T22:45:19.866Z,100354.84
2018-08-31T22:48:24.817Z,100355.41
2018-08-31T22:51:29.689Z,100351.02
2018-08-31T22:54:34.645Z,100350.23
2018-08-31T22:57:39.607Z,100345.06
2018-08-31T23:00:44.618Z,100345.94
2018-08-31T23:03:49.470Z,100345.14
2018-08-31T23:06:54.392Z,100344.41
2018-08-31T23:09:59.485Z,100340.27
2018-08-31T23:13:04.404Z,100345.77
2018-08-31T23:16:09.390Z,100344.84
2018-08-31T23:19:14.417Z,100351.47
2018-08-31T23:22:19.438Z,100347.55
2018-08-31T23:25:29.360Z,100350.84
2018-08-31T23:28:34.159Z,100340.55
2018-08-31T23:31:39.106Z,100342.13
2018-08-31T23:34:43.929Z,100338.10
2018-08-31T23:37:48.951Z,100346.20
2018-08-31T23:40:53.846Z,100347.15
2018-08-31T23:43:58.773Z,100342.89
2018-08-31T23:47:03.627Z,100340.61
2018-08-31T23:50:08.662Z,100346.22
2018-08-31T23:53:13.595Z,100349.03
2018-08-31T23:56:18.452Z,100348.52
2018-08-31T23:59:23.327Z,100348.82
